sensor_id;sensor_type;location;lat;lon;timestamp;P1;durP1;ratioP1;P2;durP2;ratioP2
1358;SDS011;673;48.098;14.422;2023-10-09T00:01:25;0.70;;;0.40;;
1358;SDS011;673;48.098;14.422;2023-10-09T00:03:52;0.50;;;0.30;;
1358;SDS011;673;48.098;14.422;2023-10-09T00:06:22;0.60;;;0.50;;
1358;SDS011;673;48.098;14.422;2023-10-09T00:09:02;0.40;;;0.30;;
1358;SDS011;673;48.098;14.422;2023-10-09T00:11:51;0.50;;;0.40;;
1358;SDS011;673;48.098;14.422;2023-10-09T00:14:22;0.50;;;0.30;;
1358;SDS011;673;48.098;14.422;2023-10-09T00:16:50;0.60;;;0.33;;
1358;SDS011;673;48.098;14.422;2023-10-09T00:19:21;0.50;;;0.37;;
1358;SDS011;673;48.098;14.422;2023-10-09T00:21:56;0.73;;;0.40;;
1358;SDS011;673;48.098;14.422;2023-10-09T00:24:31;0.60;;;0.40;;
1358;SDS011;673;48.098;14.422;2023-10-09T00:26:58;0.43;;;0.30;;
1358;SDS011;673;48.098;14.422;2023-10-09T00:29:37;0.50;;;0.40;;
1358;SDS011;673;48.098;14.422;2023-10-09T00:32:10;0.60;;;0.40;;
1358;SDS011;673;48.098;14.422;2023-10-09T00:34:48;0.50;;;0.40;;
1358;SDS011;673;48.098;14.422;2023-10-09T00:37:17;0.60;;;0.47;;
1358;SDS011;673;48.098;14.422;2023-10-09T00:39:48;0.50;;;0.40;;
1358;SDS011;673;48.098;14.422;2023-10-09T00:42:21;0.80;;;0.40;;
1358;SDS011;673;48.098;14.422;2023-10-09T00:44:52;0.60;;;0.40;;
1358;SDS011;673;48.098;14.422;2023-10-09T00:47:20;1.70;;;0.80;;
1358;SDS011;673;48.098;14.422;2023-10-09T00:49:52;1.07;;;0.40;;
1358;SDS011;673;48.098;14.422;2023-10-09T00:52:26;1.23;;;0.40;;
1358;SDS011;673;48.098;14.422;2023-10-09T00:54:58;0.50;;;0.40;;
1358;SDS011;673;48.098;14.422;2023-10-09T00:57:29;0.50;;;0.30;;
1358;SDS011;673;48.098;14.422;2023-10-09T01:00:06;0.60;;;0.40;;
1358;SDS011;673;48.098;14.422;2023-10-09T01:02:48;0.90;;;0.40;;
1358;SDS011;673;48.098;14.422;2023-10-09T01:05:35;0.97;;;0.50;;
1358;SDS011;673;48.098;14.422;2023-10-09T01:08:04;0.40;;;0.33;;
1358;SDS011;673;48.098;14.422;2023-10-09T01:10:45;1.17;;;0.50;;
1358;SDS011;673;48.098;14.422;2023-10-09T01:13:17;0.60;;;0.40;;
1358;SDS011;673;48.098;14.422;2023-10-09T01:15:44;0.50;;;0.50;;
1358;SDS011;673;48.098;14.422;2023-10-09T01:18:13;0.87;;;0.60;;
1358;SDS011;673;48.098;14.422;2023-10-09T01:20:41;0.80;;;0.57;;
1358;SDS011;673;48.098;14.422;2023-10-09T01:23:12;0.50;;;0.30;;
1358;SDS011;673;48.098;14.422;2023-10-09T01:25:40;0.70;;;0.50;;
1358;SDS011;673;48.098;14.422;2023-10-09T01:28:10;0.50;;;0.40;;
1358;SDS011;673;48.098;14.422;2023-10-09T01:30:41;1.30;;;0.70;;
1358;SDS011;673;48.098;14.422;2023-10-09T01:33:12;0.77;;;0.40;;
1358;SDS011;673;48.098;14.422;2023-10-09T01:35:47;0.73;;;0.73;;
1358;SDS011;673;48.098;14.422;2023-10-09T01:38:17;0.63;;;0.40;;
1358;SDS011;673;48.098;14.422;2023-10-09T01:40:55;0.90;;;0.50;;
1358;SDS011;673;48.098;14.422;2023-10-09T01:43:28;3.03;;;0.50;;
1358;SDS011;673;48.098;14.422;2023-10-09T01:45:59;0.63;;;0.50;;
1358;SDS011;673;48.098;14.422;2023-10-09T01:48:28;0.60;;;0.60;;
1358;SDS011;673;48.098;14.422;2023-10-09T01:50:58;0.63;;;0.50;;
1358;SDS011;673;48.098;14.422;2023-10-09T01:53:27;1.07;;;0.60;;
1358;SDS011;673;48.098;14.422;2023-10-09T01:55:55;0.50;;;0.40;;
1358;SDS011;673;48.098;14.422;2023-10-09T01:58:24;0.73;;;0.50;;
1358;SDS011;673;48.098;14.422;2023-10-09T02:00:52;1.10;;;0.60;;
1358;SDS011;673;48.098;14.422;2023-10-09T02:03:21;0.70;;;0.50;;
1358;SDS011;673;48.098;14.422;2023-10-09T02:05:49;1.17;;;0.93;;
1358;SDS011;673;48.098;14.422;2023-10-09T02:08:18;2.60;;;0.50;;
1358;SDS011;673;48.098;14.422;2023-10-09T02:10:48;0.70;;;0.70;;
1358;SDS011;673;48.098;14.422;2023-10-09T02:13:20;0.80;;;0.63;;
1358;SDS011;673;48.098;14.422;2023-10-09T02:15:55;0.70;;;0.50;;
1358;SDS011;673;48.098;14.422;2023-10-09T02:18:38;1.63;;;0.50;;
1358;SDS011;673;48.098;14.422;2023-10-09T02:21:18;4.53;;;2.00;;
1358;SDS011;673;48.098;14.422;2023-10-09T02:23:57;1.30;;;0.50;;
1358;SDS011;673;48.098;14.422;2023-10-09T02:26:30;1.50;;;0.70;;
1358;SDS011;673;48.098;14.422;2023-10-09T02:29:19;0.83;;;0.60;;
1358;SDS011;673;48.098;14.422;2023-10-09T02:31:49;1.33;;;0.50;;
1358;SDS011;673;48.098;14.422;2023-10-09T02:34:20;0.80;;;0.60;;
1358;SDS011;673;48.098;14.422;2023-10-09T02:36:50;1.23;;;0.87;;
1358;SDS011;673;48.098;14.422;2023-10-09T02:39:22;0.70;;;0.50;;
1358;SDS011;673;48.098;14.422;2023-10-09T02:41:52;0.60;;;0.50;;
1358;SDS011;673;48.098;14.422;2023-10-09T02:44:26;0.67;;;0.67;;
1358;SDS011;673;48.098;14.422;2023-10-09T02:46:55;0.70;;;0.50;;
1358;SDS011;673;48.098;14.422;2023-10-09T02:49:22;1.07;;;0.60;;
1358;SDS011;673;48.098;14.422;2023-10-09T02:51:49;0.77;;;0.57;;
1358;SDS011;673;48.098;14.422;2023-10-09T02:54:19;1.63;;;0.60;;
1358;SDS011;673;48.098;14.422;2023-10-09T02:56:55;1.33;;;0.97;;
1358;SDS011;673;48.098;14.422;2023-10-09T02:59:31;1.07;;;0.70;;
1358;SDS011;673;48.098;14.422;2023-10-09T03:01:58;0.80;;;0.60;;
1358;SDS011;673;48.098;14.422;2023-10-09T03:04:25;1.03;;;0.60;;
1358;SDS011;673;48.098;14.422;2023-10-09T03:06:54;1.33;;;1.23;;
1358;SDS011;673;48.098;14.422;2023-10-09T03:09:22;0.70;;;0.60;;
1358;SDS011;673;48.098;14.422;2023-10-09T03:11:53;1.00;;;0.70;;
1358;SDS011;673;48.098;14.422;2023-10-09T03:14:27;1.00;;;0.60;;
1358;SDS011;673;48.098;14.422;2023-10-09T03:16:55;0.80;;;0.70;;
1358;SDS011;673;48.098;14.422;2023-10-09T03:19:23;1.20;;;1.00;;
1358;SDS011;673;48.098;14.422;2023-10-09T03:21:53;1.10;;;0.90;;
1358;SDS011;673;48.098;14.422;2023-10-09T03:24:22;1.37;;;0.70;;
1358;SDS011;673;48.098;14.422;2023-10-09T03:26:49;2.10;;;0.60;;
1358;SDS011;673;48.098;14.422;2023-10-09T03:29:22;1.43;;;0.83;;
1358;SDS011;673;48.098;14.422;2023-10-09T03:31:49;0.80;;;0.80;;
1358;SDS011;673;48.098;14.422;2023-10-09T03:34:16;1.07;;;0.70;;
1358;SDS011;673;48.098;14.422;2023-10-09T03:36:44;4.60;;;1.37;;
1358;SDS011;673;48.098;14.422;2023-10-09T03:39:13;1.33;;;0.90;;
1358;SDS011;673;48.098;14.422;2023-10-09T03:41:50;1.10;;;0.60;;
1358;SDS011;673;48.098;14.422;2023-10-09T03:44:19;0.93;;;0.60;;
1358;SDS011;673;48.098;14.422;2023-10-09T03:46:48;0.90;;;0.70;;
1358;SDS011;673;48.098;14.422;2023-10-09T03:49:16;1.20;;;0.80;;
1358;SDS011;673;48.098;14.422;2023-10-09T03:51:48;1.00;;;0.90;;
1358;SDS011;673;48.098;14.422;2023-10-09T03:54:16;0.80;;;0.60;;
1358;SDS011;673;48.098;14.422;2023-10-09T03:56:45;1.03;;;0.60;;
1358;SDS011;673;48.098;14.422;2023-10-09T03:59:15;0.90;;;0.60;;
1358;SDS011;673;48.098;14.422;2023-10-09T04:01:42;0.90;;;0.70;;
1358;SDS011;673;48.098;14.422;2023-10-09T04:04:12;1.23;;;0.70;;
1358;SDS011;673;48.098;14.422;2023-10-09T04:06:39;1.50;;;0.60;;
1358;SDS011;673;48.098;14.422;2023-10-09T04:09:07;1.00;;;0.70;;
1358;SDS011;673;48.098;14.422;2023-10-09T04:11:53;1.23;;;0.80;;
1358;SDS011;673;48.098;14.422;2023-10-09T04:14:39;1.43;;;0.70;;
1358;SDS011;673;48.098;14.422;2023-10-09T04:17:14;1.37;;;0.70;;
1358;SDS011;673;48.098;14.422;2023-10-09T04:19:57;3.00;;;1.00;;
1358;SDS011;673;48.098;14.422;2023-10-09T04:22:41;1.53;;;0.70;;
1358;SDS011;673;48.098;14.422;2023-10-09T04:25:15;1.70;;;0.90;;
1358;SDS011;673;48.098;14.422;2023-10-09T04:27:51;1.93;;;0.93;;
1358;SDS011;673;48.098;14.422;2023-10-09T04:30:18;1.20;;;0.83;;
1358;SDS011;673;48.098;14.422;2023-10-09T04:32:48;1.00;;;0.70;;
1358;SDS011;673;48.098;14.422;2023-10-09T04:35:17;2.00;;;0.70;;
1358;SDS011;673;48.098;14.422;2023-10-09T04:37:49;0.80;;;0.60;;
1358;SDS011;673;48.098;14.422;2023-10-09T04:40:25;2.20;;;0.90;;
1358;SDS011;673;48.098;14.422;2023-10-09T04:43:06;1.20;;;0.67;;
1358;SDS011;673;48.098;14.422;2023-10-09T04:45:35;0.90;;;0.73;;
1358;SDS011;673;48.098;14.422;2023-10-09T04:48:22;1.80;;;0.70;;
1358;SDS011;673;48.098;14.422;2023-10-09T04:51:04;5.30;;;1.33;;
1358;SDS011;673;48.098;14.422;2023-10-09T04:53:58;1.73;;;1.00;;
1358;SDS011;673;48.098;14.422;2023-10-09T04:56:38;0.80;;;0.70;;
1358;SDS011;673;48.098;14.422;2023-10-09T04:59:17;1.10;;;0.80;;
1358;SDS011;673;48.098;14.422;2023-10-09T05:01:49;3.23;;;1.33;;
1358;SDS011;673;48.098;14.422;2023-10-09T05:04:25;3.00;;;0.70;;
1358;SDS011;673;48.098;14.422;2023-10-09T05:07:08;3.80;;;0.80;;
1358;SDS011;673;48.098;14.422;2023-10-09T05:09:48;0.77;;;0.70;;
1358;SDS011;673;48.098;14.422;2023-10-09T05:12:39;4.20;;;0.90;;
1358;SDS011;673;48.098;14.422;2023-10-09T05:15:12;1.40;;;0.83;;
1358;SDS011;673;48.098;14.422;2023-10-09T05:17:39;1.53;;;0.90;;
1358;SDS011;673;48.098;14.422;2023-10-09T05:20:17;1.73;;;1.10;;
1358;SDS011;673;48.098;14.422;2023-10-09T05:23:14;0.97;;;0.70;;
1358;SDS011;673;48.098;14.422;2023-10-09T05:25:50;1.27;;;0.60;;
1358;SDS011;673;48.098;14.422;2023-10-09T05:28:21;1.10;;;0.70;;
1358;SDS011;673;48.098;14.422;2023-10-09T05:31:02;2.83;;;2.63;;
1358;SDS011;673;48.098;14.422;2023-10-09T05:33:32;1.37;;;0.90;;
1358;SDS011;673;48.098;14.422;2023-10-09T05:36:01;1.23;;;0.97;;
1358;SDS011;673;48.098;14.422;2023-10-09T05:38:43;1.73;;;0.83;;
1358;SDS011;673;48.098;14.422;2023-10-09T05:41:13;2.07;;;0.87;;
1358;SDS011;673;48.098;14.422;2023-10-09T05:44:12;1.20;;;0.90;;
1358;SDS011;673;48.098;14.422;2023-10-09T05:46:57;1.80;;;0.80;;
1358;SDS011;673;48.098;14.422;2023-10-09T05:49:44;8.70;;;0.70;;
1358;SDS011;673;48.098;14.422;2023-10-09T05:52:20;1.70;;;0.67;;
1358;SDS011;673;48.098;14.422;2023-10-09T05:54:59;0.90;;;0.70;;
1358;SDS011;673;48.098;14.422;2023-10-09T05:57:48;1.73;;;0.73;;
1358;SDS011;673;48.098;14.422;2023-10-09T06:00:33;1.43;;;0.87;;
1358;SDS011;673;48.098;14.422;2023-10-09T06:03:17;3.47;;;0.90;;
1358;SDS011;673;48.098;14.422;2023-10-09T06:05:50;2.17;;;1.10;;
1358;SDS011;673;48.098;14.422;2023-10-09T06:08:28;1.00;;;0.90;;
1358;SDS011;673;48.098;14.422;2023-10-09T06:11:11;2.33;;;0.83;;
1358;SDS011;673;48.098;14.422;2023-10-09T06:13:53;3.20;;;1.17;;
1358;SDS011;673;48.098;14.422;2023-10-09T06:16:28;1.00;;;0.80;;
1358;SDS011;673;48.098;14.422;2023-10-09T06:19:06;3.10;;;0.93;;
1358;SDS011;673;48.098;14.422;2023-10-09T06:21:38;1.10;;;0.80;;
1358;SDS011;673;48.098;14.422;2023-10-09T06:24:06;0.70;;;0.67;;
1358;SDS011;673;48.098;14.422;2023-10-09T06:26:43;1.53;;;0.87;;
1358;SDS011;673;48.098;14.422;2023-10-09T06:29:37;1.50;;;0.90;;
1358;SDS011;673;48.098;14.422;2023-10-09T06:32:16;1.23;;;1.13;;
1358;SDS011;673;48.098;14.422;2023-10-09T06:34:59;2.00;;;1.10;;
1358;SDS011;673;48.098;14.422;2023-10-09T06:37:57;1.13;;;0.90;;
1358;SDS011;673;48.098;14.422;2023-10-09T06:40:47;2.70;;;2.50;;
1358;SDS011;673;48.098;14.422;2023-10-09T06:43:33;3.30;;;1.40;;
1358;SDS011;673;48.098;14.422;2023-10-09T06:46:14;2.70;;;1.30;;
1358;SDS011;673;48.098;14.422;2023-10-09T06:48:59;1.93;;;1.10;;
1358;SDS011;673;48.098;14.422;2023-10-09T06:51:40;0.80;;;0.67;;
1358;SDS011;673;48.098;14.422;2023-10-09T06:54:07;1.43;;;0.90;;
1358;SDS011;673;48.098;14.422;2023-10-09T06:56:39;1.27;;;0.90;;
1358;SDS011;673;48.098;14.422;2023-10-09T06:59:24;1.43;;;0.97;;
1358;SDS011;673;48.098;14.422;2023-10-09T07:02:06;1.67;;;0.97;;
1358;SDS011;673;48.098;14.422;2023-10-09T07:04:53;1.60;;;1.10;;
1358;SDS011;673;48.098;14.422;2023-10-09T07:07:35;1.20;;;0.83;;
1358;SDS011;673;48.098;14.422;2023-10-09T07:10:16;1.60;;;1.07;;
1358;SDS011;673;48.098;14.422;2023-10-09T07:12:57;2.50;;;1.43;;
1358;SDS011;673;48.098;14.422;2023-10-09T07:15:24;2.13;;;1.87;;
1358;SDS011;673;48.098;14.422;2023-10-09T07:18:09;1.93;;;0.90;;
1358;SDS011;673;48.098;14.422;2023-10-09T07:21:06;2.40;;;1.20;;
1358;SDS011;673;48.098;14.422;2023-10-09T07:23:37;1.00;;;0.90;;
1358;SDS011;673;48.098;14.422;2023-10-09T07:26:14;1.80;;;1.00;;
1358;SDS011;673;48.098;14.422;2023-10-09T07:28:48;0.77;;;0.60;;
1358;SDS011;673;48.098;14.422;2023-10-09T07:31:18;1.27;;;1.17;;
1358;SDS011;673;48.098;14.422;2023-10-09T07:33:54;0.83;;;0.70;;
1358;SDS011;673;48.098;14.422;2023-10-09T07:36:25;1.30;;;1.00;;
1358;SDS011;673;48.098;14.422;2023-10-09T07:39:00;0.90;;;0.90;;
1358;SDS011;673;48.098;14.422;2023-10-09T07:41:32;1.20;;;0.70;;
1358;SDS011;673;48.098;14.422;2023-10-09T07:43:58;2.00;;;1.30;;
1358;SDS011;673;48.098;14.422;2023-10-09T07:46:44;2.37;;;1.00;;
1358;SDS011;673;48.098;14.422;2023-10-09T07:49:38;3.73;;;1.30;;
1358;SDS011;673;48.098;14.422;2023-10-09T07:52:04;2.00;;;0.80;;
1358;SDS011;673;48.098;14.422;2023-10-09T07:54:31;4.00;;;1.37;;
1358;SDS011;673;48.098;14.422;2023-10-09T07:57:00;4.53;;;1.17;;
1358;SDS011;673;48.098;14.422;2023-10-09T07:59:34;5.07;;;1.53;;
1358;SDS011;673;48.098;14.422;2023-10-09T08:02:06;1.53;;;1.07;;
1358;SDS011;673;48.098;14.422;2023-10-09T08:04:38;1.90;;;1.17;;
1358;SDS011;673;48.098;14.422;2023-10-09T08:07:13;4.50;;;2.30;;
1358;SDS011;673;48.098;14.422;2023-10-09T08:09:50;3.13;;;1.00;;
1358;SDS011;673;48.098;14.422;2023-10-09T08:12:44;2.63;;;1.00;;
1358;SDS011;673;48.098;14.422;2023-10-09T08:15:46;2.27;;;1.17;;
1358;SDS011;673;48.098;14.422;2023-10-09T08:18:17;1.77;;;1.00;;
1358;SDS011;673;48.098;14.422;2023-10-09T08:20:53;1.33;;;0.70;;
1358;SDS011;673;48.098;14.422;2023-10-09T08:23:34;1.43;;;1.20;;
1358;SDS011;673;48.098;14.422;2023-10-09T08:26:14;2.33;;;1.50;;
1358;SDS011;673;48.098;14.422;2023-10-09T08:28:55;1.00;;;0.90;;
1358;SDS011;673;48.098;14.422;2023-10-09T08:31:41;1.97;;;1.10;;
1358;SDS011;673;48.098;14.422;2023-10-09T08:34:22;2.00;;;1.23;;
1358;SDS011;673;48.098;14.422;2023-10-09T08:36:51;7.20;;;1.93;;
1358;SDS011;673;48.098;14.422;2023-10-09T08:39:19;1.87;;;1.20;;
1358;SDS011;673;48.098;14.422;2023-10-09T08:41:52;1.30;;;1.17;;
1358;SDS011;673;48.098;14.422;2023-10-09T08:44:21;2.10;;;0.97;;
1358;SDS011;673;48.098;14.422;2023-10-09T08:46:50;1.73;;;1.07;;
1358;SDS011;673;48.098;14.422;2023-10-09T08:49:18;3.03;;;1.00;;
1358;SDS011;673;48.098;14.422;2023-10-09T08:51:46;6.53;;;1.50;;
1358;SDS011;673;48.098;14.422;2023-10-09T08:54:13;7.13;;;1.73;;
1358;SDS011;673;48.098;14.422;2023-10-09T08:56:41;6.83;;;1.87;;
1358;SDS011;673;48.098;14.422;2023-10-09T08:59:14;1.93;;;1.23;;
1358;SDS011;673;48.098;14.422;2023-10-09T09:01:45;1.70;;;1.60;;
1358;SDS011;673;48.098;14.422;2023-10-09T09:04:35;1.23;;;0.97;;
1358;SDS011;673;48.098;14.422;2023-10-09T09:07:04;5.93;;;2.03;;
1358;SDS011;673;48.098;14.422;2023-10-09T09:09:32;2.83;;;0.83;;
1358;SDS011;673;48.098;14.422;2023-10-09T09:11:59;5.10;;;1.53;;
1358;SDS011;673;48.098;14.422;2023-10-09T09:14:34;2.93;;;0.90;;
1358;SDS011;673;48.098;14.422;2023-10-09T09:17:04;3.63;;;1.67;;
1358;SDS011;673;48.098;14.422;2023-10-09T09:19:36;1.90;;;1.00;;
1358;SDS011;673;48.098;14.422;2023-10-09T09:22:03;4.37;;;1.43;;
1358;SDS011;673;48.098;14.422;2023-10-09T09:24:38;2.30;;;1.63;;
1358;SDS011;673;48.098;14.422;2023-10-09T09:27:13;6.53;;;1.63;;
1358;SDS011;673;48.098;14.422;2023-10-09T09:29:43;3.57;;;1.23;;
1358;SDS011;673;48.098;14.422;2023-10-09T09:32:25;5.27;;;1.40;;
1358;SDS011;673;48.098;14.422;2023-10-09T09:34:55;3.20;;;1.57;;
1358;SDS011;673;48.098;14.422;2023-10-09T09:37:26;1.73;;;1.53;;
1358;SDS011;673;48.098;14.422;2023-10-09T09:39:57;4.03;;;1.00;;
1358;SDS011;673;48.098;14.422;2023-10-09T09:42:26;3.10;;;2.27;;
1358;SDS011;673;48.098;14.422;2023-10-09T09:44:56;3.40;;;1.23;;
1358;SDS011;673;48.098;14.422;2023-10-09T09:47:28;3.00;;;1.30;;
1358;SDS011;673;48.098;14.422;2023-10-09T09:49:58;2.23;;;0.90;;
1358;SDS011;673;48.098;14.422;2023-10-09T09:52:37;3.37;;;1.40;;
1358;SDS011;673;48.098;14.422;2023-10-09T09:55:06;1.37;;;1.27;;
1358;SDS011;673;48.098;14.422;2023-10-09T09:57:39;12.03;;;2.60;;
1358;SDS011;673;48.098;14.422;2023-10-09T10:00:10;4.20;;;1.57;;
1358;SDS011;673;48.098;14.422;2023-10-09T10:02:55;3.90;;;2.13;;
1358;SDS011;673;48.098;14.422;2023-10-09T10:05:27;7.00;;;2.70;;
1358;SDS011;673;48.098;14.422;2023-10-09T10:07:56;5.13;;;1.50;;
1358;SDS011;673;48.098;14.422;2023-10-09T10:10:35;7.00;;;1.63;;
1358;SDS011;673;48.098;14.422;2023-10-09T10:13:12;5.03;;;1.60;;
1358;SDS011;673;48.098;14.422;2023-10-09T10:15:59;4.97;;;1.73;;
1358;SDS011;673;48.098;14.422;2023-10-09T10:18:51;2.70;;;1.77;;
1358;SDS011;673;48.098;14.422;2023-10-09T10:21:24;6.07;;;1.40;;
1358;SDS011;673;48.098;14.422;2023-10-09T10:27:17;8.43;;;1.63;;
1358;SDS011;673;48.098;14.422;2023-10-09T10:33:02;3.60;;;0.93;;
1358;SDS011;673;48.098;14.422;2023-10-09T10:35:38;5.60;;;1.73;;
1358;SDS011;673;48.098;14.422;2023-10-09T10:41:13;9.33;;;1.93;;
1358;SDS011;673;48.098;14.422;2023-10-09T10:43:47;6.37;;;2.20;;
1358;SDS011;673;48.098;14.422;2023-10-09T10:46:24;6.73;;;2.60;;
1358;SDS011;673;48.098;14.422;2023-10-09T10:49:03;3.60;;;2.07;;
1358;SDS011;673;48.098;14.422;2023-10-09T10:51:47;7.97;;;2.33;;
1358;SDS011;673;48.098;14.422;2023-10-09T10:54:26;4.90;;;2.00;;
1358;SDS011;673;48.098;14.422;2023-10-09T10:57:14;2.70;;;1.30;;
1358;SDS011;673;48.098;14.422;2023-10-09T10:59:53;11.13;;;2.40;;
1358;SDS011;673;48.098;14.422;2023-10-09T11:02:37;3.10;;;1.43;;
1358;SDS011;673;48.098;14.422;2023-10-09T11:05:06;6.50;;;2.77;;
1358;SDS011;673;48.098;14.422;2023-10-09T11:07:49;5.00;;;2.60;;
1358;SDS011;673;48.098;14.422;2023-10-09T11:10:21;9.87;;;2.40;;
1358;SDS011;673;48.098;14.422;2023-10-09T11:12:54;4.20;;;2.07;;
1358;SDS011;673;48.098;14.422;2023-10-09T11:15:39;9.80;;;2.93;;
1358;SDS011;673;48.098;14.422;2023-10-09T11:18:21;10.90;;;2.60;;
1358;SDS011;673;48.098;14.422;2023-10-09T11:20:51;2.20;;;2.00;;
1358;SDS011;673;48.098;14.422;2023-10-09T11:23:46;6.00;;;1.77;;
1358;SDS011;673;48.098;14.422;2023-10-09T11:26:23;10.83;;;1.70;;
1358;SDS011;673;48.098;14.422;2023-10-09T11:29:05;7.77;;;1.50;;
1358;SDS011;673;48.098;14.422;2023-10-09T11:31:39;4.80;;;2.17;;
1358;SDS011;673;48.098;14.422;2023-10-09T11:34:20;4.87;;;1.67;;
1358;SDS011;673;48.098;14.422;2023-10-09T11:36:54;6.20;;;3.43;;
1358;SDS011;673;48.098;14.422;2023-10-09T11:39:25;4.47;;;1.73;;
1358;SDS011;673;48.098;14.422;2023-10-09T11:45:00;12.10;;;4.13;;
1358;SDS011;673;48.098;14.422;2023-10-09T11:47:33;6.27;;;2.60;;
1358;SDS011;673;48.098;14.422;2023-10-09T11:50:00;3.33;;;2.20;;
1358;SDS011;673;48.098;14.422;2023-10-09T11:52:55;6.23;;;1.80;;
1358;SDS011;673;48.098;14.422;2023-10-09T11:55:36;11.60;;;3.70;;
1358;SDS011;673;48.098;14.422;2023-10-09T11:58:03;7.40;;;1.90;;
1358;SDS011;673;48.098;14.422;2023-10-09T12:00:32;5.20;;;2.20;;
1358;SDS011;673;48.098;14.422;2023-10-09T12:03:09;4.57;;;1.60;;
1358;SDS011;673;48.098;14.422;2023-10-09T12:05:38;3.87;;;2.20;;
1358;SDS011;673;48.098;14.422;2023-10-09T12:08:09;10.27;;;3.13;;
1358;SDS011;673;48.098;14.422;2023-10-09T12:10:40;8.27;;;2.47;;
1358;SDS011;673;48.098;14.422;2023-10-09T12:13:08;5.70;;;2.00;;
1358;SDS011;673;48.098;14.422;2023-10-09T12:15:35;4.20;;;1.97;;
1358;SDS011;673;48.098;14.422;2023-10-09T12:18:05;6.90;;;2.80;;
1358;SDS011;673;48.098;14.422;2023-10-09T12:20:40;12.43;;;1.73;;
1358;SDS011;673;48.098;14.422;2023-10-09T12:23:15;7.33;;;2.37;;
1358;SDS011;673;48.098;14.422;2023-10-09T12:25:43;5.33;;;2.83;;
1358;SDS011;673;48.098;14.422;2023-10-09T12:28:11;3.70;;;2.00;;
1358;SDS011;673;48.098;14.422;2023-10-09T12:30:38;4.20;;;2.43;;
1358;SDS011;673;48.098;14.422;2023-10-09T12:33:06;9.23;;;2.00;;
1358;SDS011;673;48.098;14.422;2023-10-09T12:35:37;6.50;;;2.40;;
1358;SDS011;673;48.098;14.422;2023-10-09T12:38:05;6.90;;;2.07;;
1358;SDS011;673;48.098;14.422;2023-10-09T12:40:35;5.07;;;1.90;;
1358;SDS011;673;48.098;14.422;2023-10-09T12:43:04;5.17;;;3.20;;
1358;SDS011;673;48.098;14.422;2023-10-09T12:45:40;5.83;;;2.00;;
1358;SDS011;673;48.098;14.422;2023-10-09T12:48:10;4.57;;;3.30;;
1358;SDS011;673;48.098;14.422;2023-10-09T12:50:38;6.77;;;2.27;;
1358;SDS011;673;48.098;14.422;2023-10-09T12:53:09;8.07;;;2.40;;
1358;SDS011;673;48.098;14.422;2023-10-09T12:55:43;11.17;;;2.33;;
1358;SDS011;673;48.098;14.422;2023-10-09T12:58:11;14.37;;;2.20;;
1358;SDS011;673;48.098;14.422;2023-10-09T13:00:41;8.67;;;3.80;;
1358;SDS011;673;48.098;14.422;2023-10-09T13:03:13;5.73;;;2.23;;
1358;SDS011;673;48.098;14.422;2023-10-09T13:05:44;7.00;;;1.80;;
1358;SDS011;673;48.098;14.422;2023-10-09T13:08:19;5.73;;;2.30;;
1358;SDS011;673;48.098;14.422;2023-10-09T13:10:50;6.30;;;2.77;;
1358;SDS011;673;48.098;14.422;2023-10-09T13:13:28;4.23;;;1.83;;
1358;SDS011;673;48.098;14.422;2023-10-09T13:16:05;8.90;;;3.70;;
1358;SDS011;673;48.098;14.422;2023-10-09T13:18:39;11.13;;;3.63;;
1358;SDS011;673;48.098;14.422;2023-10-09T13:21:06;7.83;;;2.40;;
1358;SDS011;673;48.098;14.422;2023-10-09T13:23:33;7.77;;;2.20;;
1358;SDS011;673;48.098;14.422;2023-10-09T13:26:05;12.03;;;2.00;;
1358;SDS011;673;48.098;14.422;2023-10-09T13:28:44;5.00;;;3.23;;
1358;SDS011;673;48.098;14.422;2023-10-09T13:31:12;8.50;;;3.63;;
1358;SDS011;673;48.098;14.422;2023-10-09T13:33:40;6.27;;;3.07;;
1358;SDS011;673;48.098;14.422;2023-10-09T13:36:07;8.90;;;2.47;;
1358;SDS011;673;48.098;14.422;2023-10-09T13:38:42;7.10;;;3.07;;
1358;SDS011;673;48.098;14.422;2023-10-09T13:41:09;9.50;;;2.00;;
1358;SDS011;673;48.098;14.422;2023-10-09T13:43:38;8.83;;;2.90;;
1358;SDS011;673;48.098;14.422;2023-10-09T13:46:09;4.93;;;1.70;;
1358;SDS011;673;48.098;14.422;2023-10-09T13:48:37;8.27;;;2.17;;
1358;SDS011;673;48.098;14.422;2023-10-09T13:51:06;7.13;;;2.47;;
1358;SDS011;673;48.098;14.422;2023-10-09T13:53:39;9.10;;;3.30;;
1358;SDS011;673;48.098;14.422;2023-10-09T13:56:10;6.70;;;3.00;;
1358;SDS011;673;48.098;14.422;2023-10-09T13:58:40;9.40;;;3.13;;
1358;SDS011;673;48.098;14.422;2023-10-09T14:01:09;12.37;;;3.87;;
1358;SDS011;673;48.098;14.422;2023-10-09T14:03:36;6.63;;;2.30;;
1358;SDS011;673;48.098;14.422;2023-10-09T14:06:04;4.17;;;2.60;;
1358;SDS011;673;48.098;14.422;2023-10-09T14:08:37;8.37;;;3.57;;
1358;SDS011;673;48.098;14.422;2023-10-09T14:11:07;4.53;;;1.90;;
1358;SDS011;673;48.098;14.422;2023-10-09T14:13:38;5.77;;;4.10;;
1358;SDS011;673;48.098;14.422;2023-10-09T14:16:05;10.93;;;2.30;;
1358;SDS011;673;48.098;14.422;2023-10-09T14:18:34;9.27;;;4.70;;
1358;SDS011;673;48.098;14.422;2023-10-09T14:21:01;6.17;;;2.00;;
1358;SDS011;673;48.098;14.422;2023-10-09T14:23:40;12.10;;;4.07;;
1358;SDS011;673;48.098;14.422;2023-10-09T14:26:12;9.00;;;2.83;;
1358;SDS011;673;48.098;14.422;2023-10-09T14:28:39;6.93;;;2.53;;
1358;SDS011;673;48.098;14.422;2023-10-09T14:31:07;4.30;;;1.90;;
1358;SDS011;673;48.098;14.422;2023-10-09T14:33:38;3.60;;;1.97;;
1358;SDS011;673;48.098;14.422;2023-10-09T14:36:05;7.90;;;2.37;;
1358;SDS011;673;48.098;14.422;2023-10-09T14:38:33;9.03;;;3.77;;
1358;SDS011;673;48.098;14.422;2023-10-09T14:41:03;3.53;;;2.00;;
1358;SDS011;673;48.098;14.422;2023-10-09T14:43:36;7.70;;;2.43;;
1358;SDS011;673;48.098;14.422;2023-10-09T14:46:03;6.67;;;2.90;;
1358;SDS011;673;48.098;14.422;2023-10-09T14:48:35;7.63;;;3.67;;
1358;SDS011;673;48.098;14.422;2023-10-09T14:51:04;6.77;;;2.53;;
1358;SDS011;673;48.098;14.422;2023-10-09T14:53:32;9.90;;;4.30;;
1358;SDS011;673;48.098;14.422;2023-10-09T14:55:59;7.50;;;3.10;;
1358;SDS011;673;48.098;14.422;2023-10-09T14:58:28;8.03;;;3.40;;
1358;SDS011;673;48.098;14.422;2023-10-09T15:00:57;4.50;;;3.53;;
1358;SDS011;673;48.098;14.422;2023-10-09T15:03:35;6.80;;;2.70;;
1358;SDS011;673;48.098;14.422;2023-10-09T15:06:04;9.03;;;3.70;;
1358;SDS011;673;48.098;14.422;2023-10-09T15:08:35;8.10;;;4.07;;
1358;SDS011;673;48.098;14.422;2023-10-09T15:11:03;6.33;;;3.40;;
1358;SDS011;673;48.098;14.422;2023-10-09T15:13:31;7.97;;;4.20;;
1358;SDS011;673;48.098;14.422;2023-10-09T15:15:58;5.70;;;3.17;;
1358;SDS011;673;48.098;14.422;2023-10-09T15:18:27;3.67;;;3.10;;
1358;SDS011;673;48.098;14.422;2023-10-09T15:20:58;4.47;;;2.70;;
1358;SDS011;673;48.098;14.422;2023-10-09T15:23:27;16.43;;;4.53;;
1358;SDS011;673;48.098;14.422;2023-10-09T15:25:54;4.80;;;3.67;;
1358;SDS011;673;48.098;14.422;2023-10-09T15:28:21;5.40;;;3.17;;
1358;SDS011;673;48.098;14.422;2023-10-09T15:30:48;10.83;;;4.53;;
1358;SDS011;673;48.098;14.422;2023-10-09T15:33:16;10.37;;;3.50;;
1358;SDS011;673;48.098;14.422;2023-10-09T15:35:45;5.40;;;2.47;;
1358;SDS011;673;48.098;14.422;2023-10-09T15:38:15;3.53;;;2.37;;
1358;SDS011;673;48.098;14.422;2023-10-09T15:40:43;8.83;;;2.53;;
1358;SDS011;673;48.098;14.422;2023-10-09T15:43:12;8.83;;;3.83;;
1358;SDS011;673;48.098;14.422;2023-10-09T15:45:43;19.03;;;1.67;;
1358;SDS011;673;48.098;14.422;2023-10-09T15:48:13;3.70;;;1.83;;
1358;SDS011;673;48.098;14.422;2023-10-09T15:50:42;3.47;;;1.30;;
1358;SDS011;673;48.098;14.422;2023-10-09T15:53:13;3.00;;;1.30;;
1358;SDS011;673;48.098;14.422;2023-10-09T15:55:44;5.93;;;2.07;;
1358;SDS011;673;48.098;14.422;2023-10-09T15:58:11;2.90;;;1.30;;
1358;SDS011;673;48.098;14.422;2023-10-09T16:00:42;5.93;;;1.10;;
1358;SDS011;673;48.098;14.422;2023-10-09T16:03:10;2.40;;;1.10;;
1358;SDS011;673;48.098;14.422;2023-10-09T16:05:39;4.10;;;1.77;;
1358;SDS011;673;48.098;14.422;2023-10-09T16:08:06;11.67;;;1.33;;